Time;durP1;ratioP1;P1;durP2;ratioP2;P2;SDS_P1;SDS_P2;PMS_P1;PMS_P2;Temp;Humidity;BMP_temperature;BMP_pressure;BME280_temperature;BME280_humidity;BME280_pressure;Samples;Min_cycle;Max_cycle;Signal;HPM_P1;HPM_P2
2021/07/28 00:01:33;;;;;;;7.83;6.42;;;19.10;99.90;;;;;;1976026;73;21020;-78
2021/07/28 00:03:59;;;;;;;8.85;6.62;;;19.00;99.90;;;;;;1976229;73;21092;-77
2021/07/28 00:06:26;;;;;;;6.85;6.17;;;18.90;99.90;;;;;;1976008;73;21088;-78
2021/07/28 00:08:52;;;;;;;8.90;6.40;;;19.00;99.90;;;;;;1976314;72;21091;-78
2021/07/28 00:11:18;;;;;;;6.35;5.75;;;19.00;99.90;;;;;;1976173;73;21436;-77
2021/07/28 00:13:45;;;;;;;13.15;6.45;;;19.00;99.90;;;;;;1976101;73;21578;-77
2021/07/28 00:16:13;;;;;;;7.12;6.22;;;19.10;99.90;;;;;;1977643;73;21099;-76
2021/07/28 00:23:56;;;;;;;8.75;7.05;;;19.00;99.90;;;;;;1976215;73;21048;-77
2021/07/28 00:26:22;;;;;;;8.33;7.22;;;19.10;99.90;;;;;;1976106;73;21087;-77
2021/07/28 00:28:48;;;;;;;12.15;6.97;;;19.10;99.90;;;;;;1976068;73;21060;-77
2021/07/28 00:31:15;;;;;;;9.20;6.92;;;19.10;99.90;;;;;;1976009;72;21187;-78
2021/07/28 00:33:41;;;;;;;12.18;8.15;;;19.00;99.90;;;;;;1975983;72;21537;-78
2021/07/28 00:36:07;;;;;;;8.48;7.58;;;19.00;99.90;;;;;;1976269;73;21499;-77
2021/07/28 00:38:33;;;;;;;13.85;7.55;;;19.00;99.90;;;;;;1976151;72;21496;-77
2021/07/28 00:40:59;;;;;;;9.43;7.70;;;19.00;99.90;;;;;;1976425;72;21443;-77
2021/07/28 00:43:25;;;;;;;9.33;8.35;;;19.10;99.90;;;;;;1976215;73;21514;-78
2021/07/28 00:45:51;;;;;;;9.88;7.80;;;19.10;99.90;;;;;;1976177;73;21464;-77
2021/07/28 00:48:17;;;;;;;9.20;7.75;;;19.00;99.90;;;;;;1979328;72;21500;-77
2021/07/28 00:50:44;;;;;;;9.55;7.37;;;19.00;99.90;;;;;;1978963;72;21507;-78
2021/07/28 00:53:19;;;;;;;9.10;7.25;;;18.90;99.90;;;;;;1976358;73;21492;-77
2021/07/28 00:55:37;;;;;;;9.28;7.35;;;18.90;99.90;;;;;;1974659;72;21076;-78
2021/07/28 00:58:04;;;;;;;9.80;6.78;;;18.90;99.90;;;;;;1976545;72;21185;-77
2021/07/28 01:00:30;;;;;;;11.43;7.30;;;18.90;99.90;;;;;;1982805;72;21091;-77
2021/07/28 01:02:56;;;;;;;11.30;6.40;;;18.90;99.90;;;;;;1977315;72;21028;-77
2021/07/28 01:05:22;;;;;;;7.28;6.58;;;18.90;99.90;;;;;;1976986;72;21058;-77
2021/07/28 01:07:48;;;;;;;7.62;6.08;;;18.90;99.90;;;;;;1986897;72;21160;-77
2021/07/28 01:10:14;;;;;;;7.33;6.55;;;19.10;99.90;;;;;;1984899;72;21083;-78
2021/07/28 01:12:46;;;;;;;9.38;7.05;;;19.10;99.90;;;;;;1976287;73;21569;-77
2021/07/28 01:15:12;;;;;;;;;;;19.10;99.90;;;;;;1978815;72;21177;-77
2021/07/28 01:17:38;;;;;;;7.47;6.37;;;19.10;99.90;;;;;;1976176;73;20367;-76
2021/07/28 01:20:04;;;;;;;7.00;6.30;;;19.00;99.90;;;;;;1976192;72;21480;-77
2021/07/28 01:22:30;;;;;;;8.93;7.42;;;19.00;99.90;;;;;;1976144;73;21515;-78
2021/07/28 01:24:57;;;;;;;7.92;6.78;;;19.00;99.90;;;;;;1976213;72;21574;-78
2021/07/28 01:27:24;;;;;;;8.10;6.65;;;18.90;99.90;;;;;;1976568;72;21589;-77
2021/07/28 01:29:50;;;;;;;7.45;6.40;;;19.00;99.90;;;;;;1976196;73;21080;-77
2021/07/28 01:32:16;;;;;;;8.50;7.12;;;19.00;99.90;;;;;;1976335;72;21091;-77
2021/07/28 01:34:42;;;;;;;7.30;6.28;;;19.00;99.90;;;;;;1976200;73;21091;-78
2021/07/28 01:37:08;;;;;;;10.98;6.40;;;18.90;99.90;;;;;;1976135;73;21198;-77
2021/07/28 01:39:34;;;;;;;10.75;6.92;;;18.90;99.90;;;;;;1976175;73;21054;-78
2021/07/28 01:42:00;;;;;;;7.20;6.47;;;18.90;99.90;;;;;;1976202;72;21084;-78
2021/07/28 01:44:26;;;;;;;8.08;6.78;;;18.90;99.90;;;;;;1976138;72;21095;-77
2021/07/28 01:46:53;;;;;;;7.05;6.22;;;19.00;99.90;;;;;;1976200;73;21064;-77
2021/07/28 01:49:19;;;;;;;6.78;6.22;;;19.00;99.90;;;;;;1976172;73;21051;-77
2021/07/28 01:51:45;;;;;;;8.33;6.62;;;19.00;99.90;;;;;;1976183;73;21149;-77
2021/07/28 01:54:12;;;;;;;7.10;6.25;;;18.90;99.90;;;;;;1976255;72;21079;-77
2021/07/28 01:56:42;;;;;;;6.90;6.20;;;18.90;99.90;;;;;;1976810;72;21102;-77
2021/07/28 01:59:05;;;;;;;7.22;6.55;;;18.80;99.90;;;;;;1975837;72;21067;-77
2021/07/28 02:01:32;;;;;;;6.50;5.85;;;18.90;99.90;;;;;;1976106;73;21070;-77
2021/07/28 02:03:58;;;;;;;6.85;6.22;;;18.90;99.90;;;;;;1976258;73;21067;-77
2021/07/28 02:06:24;;;;;;;10.05;6.70;;;18.90;99.90;;;;;;1976198;73;21088;-77
2021/07/28 02:08:50;;;;;;;6.92;6.22;;;18.90;99.90;;;;;;1976290;72;21075;-77
2021/07/28 02:11:17;;;;;;;7.55;6.25;;;18.80;99.90;;;;;;1976171;73;21170;-77
2021/07/28 02:13:43;;;;;;;7.08;6.37;;;18.80;99.90;;;;;;1976187;73;21112;-77
2021/07/28 02:16:09;;;;;;;6.33;5.72;;;18.70;99.90;;;;;;1976188;72;21067;-77
2021/07/28 02:18:35;;;;;;;12.07;6.33;;;18.80;99.90;;;;;;1976179;73;21146;-77
2021/07/28 02:21:04;;;;;;;7.78;6.67;;;18.80;99.90;;;;;;1976480;72;21149;-77
2021/07/28 02:23:31;;;;;;;7.95;6.53;;;18.80;99.90;;;;;;1976483;73;21520;-76
2021/07/28 02:25:57;;;;;;;10.13;5.97;;;18.80;99.90;;;;;;1976203;72;21068;-76
2021/07/28 02:28:23;;;;;;;6.95;6.12;;;18.80;99.90;;;;;;1976475;72;21197;-76
2021/07/28 02:30:50;;;;;;;8.25;5.28;;;18.80;99.90;;;;;;1976300;72;21077;-77
2021/07/28 02:33:16;;;;;;;6.78;5.92;;;18.80;99.90;;;;;;1976125;73;21142;-76
2021/07/28 02:35:42;;;;;;;5.90;5.40;;;18.80;99.90;;;;;;1976332;72;21057;-77
2021/07/28 02:38:08;;;;;;;8.35;6.03;;;18.80;99.90;;;;;;1976128;73;21051;-77
2021/07/28 02:40:34;;;;;;;5.95;5.40;;;18.80;99.90;;;;;;1976602;72;21088;-77
2021/07/28 02:43:00;;;;;;;8.35;6.05;;;18.80;99.90;;;;;;1976143;73;21079;-76
2021/07/28 02:45:26;;;;;;;8.10;6.60;;;18.80;99.90;;;;;;1976383;72;21157;-77
2021/07/28 02:47:52;;;;;;;6.97;6.05;;;18.80;99.90;;;;;;1976266;73;21492;-76
2021/07/28 02:50:19;;;;;;;6.72;6.03;;;18.70;99.90;;;;;;1976472;72;21499;-76
2021/07/28 02:52:45;;;;;;;6.55;5.92;;;18.60;99.90;;;;;;1976009;73;21514;-76
2021/07/28 02:55:11;;;;;;;7.47;5.75;;;18.60;99.90;;;;;;1976194;73;21553;-77
2021/07/28 02:57:37;;;;;;;10.43;6.35;;;18.60;99.90;;;;;;1976026;72;21478;-76
2021/07/28 03:00:03;;;;;;;6.62;5.60;;;18.50;99.90;;;;;;1976239;73;21516;-77
2021/07/28 03:02:29;;;;;;;7.33;6.37;;;18.50;99.90;;;;;;1976147;73;21452;-76
2021/07/28 03:04:55;;;;;;;6.30;5.70;;;18.40;99.90;;;;;;1978909;72;21068;-77
2021/07/28 03:07:21;;;;;;;7.70;5.60;;;18.40;99.90;;;;;;1976182;72;21083;-77
2021/07/28 03:09:47;;;;;;;6.50;5.83;;;18.30;99.90;;;;;;1976255;73;21075;-76
2021/07/28 03:12:14;;;;;;;6.33;5.47;;;18.30;99.90;;;;;;1976634;72;21115;-75
2021/07/28 03:14:40;;;;;;;6.53;5.87;;;18.30;99.90;;;;;;1976538;72;21071;-76
2021/07/28 03:17:06;;;;;;;6.60;5.83;;;18.30;99.90;;;;;;1976121;73;21055;-77
2021/07/28 03:19:32;;;;;;;7.37;6.28;;;18.30;99.90;;;;;;1976129;72;21149;-76
2021/07/28 03:21:58;;;;;;;9.50;5.92;;;18.30;99.90;;;;;;1976129;73;21072;-76
2021/07/28 03:24:24;;;;;;;12.63;7.78;;;18.30;99.90;;;;;;1976102;73;21094;-76
2021/07/28 03:26:50;;;;;;;7.50;6.90;;;18.30;99.90;;;;;;1976138;73;21157;-76
2021/07/28 03:29:17;;;;;;;6.72;6.15;;;18.40;99.90;;;;;;1976269;73;21060;-77
2021/07/28 03:31:43;;;;;;;7.75;6.95;;;18.40;99.90;;;;;;1986376;72;21221;-77
2021/07/28 03:34:09;;;;;;;7.33;6.62;;;18.50;99.90;;;;;;1978915;72;21076;-77
2021/07/28 03:36:35;;;;;;;8.55;6.70;;;18.50;99.90;;;;;;1976225;72;21128;-77
2021/07/28 03:39:01;;;;;;;8.10;7.28;;;18.60;99.90;;;;;;1976235;73;21087;-77
2021/07/28 03:41:29;;;;;;;7.00;6.28;;;18.60;99.90;;;;;;1976048;73;21027;-77
2021/07/28 03:43:55;;;;;;;8.20;6.17;;;18.60;99.90;;;;;;1976179;72;21056;-77
2021/07/28 03:46:21;;;;;;;6.60;5.97;;;18.70;99.90;;;;;;1976328;73;21047;-77
2021/07/28 03:48:47;;;;;;;7.33;6.62;;;18.60;99.90;;;;;;1976255;72;21165;-76
2021/07/28 03:51:13;;;;;;;7.55;6.35;;;18.60;99.90;;;;;;1976344;72;21503;-76
2021/07/28 03:53:39;;;;;;;7.47;6.60;;;18.60;99.90;;;;;;1981966;72;21019;-78
2021/07/28 03:56:06;;;;;;;11.35;7.55;;;18.60;99.90;;;;;;1976521;72;21117;-75
2021/07/28 03:58:32;;;;;;;9.18;7.30;;;18.60;99.90;;;;;;1976182;72;21546;-76
2021/07/28 04:00:58;;;;;;;11.38;7.45;;;18.70;99.90;;;;;;1976126;73;21047;-76
2021/07/28 04:03:24;;;;;;;9.83;8.08;;;18.80;99.90;;;;;;1976152;73;21233;-76
2021/07/28 04:05:50;;;;;;;9.20;7.55;;;18.70;99.90;;;;;;1976231;73;21064;-75
2021/07/28 04:08:16;;;;;;;14.20;7.67;;;18.70;99.90;;;;;;1976557;72;21079;-77
2021/07/28 04:10:43;;;;;;;11.33;8.38;;;18.70;99.90;;;;;;1976564;72;21058;-76
2021/07/28 04:13:09;;;;;;;13.60;8.85;;;18.70;99.90;;;;;;1976433;72;21506;-77
2021/07/28 04:15:35;;;;;;;11.70;8.43;;;18.70;99.90;;;;;;1976634;72;21420;-77
2021/07/28 04:18:02;;;;;;;11.80;8.35;;;18.70;99.90;;;;;;1976676;72;21498;-77
2021/07/28 04:20:28;;;;;;;10.00;9.00;;;18.60;99.90;;;;;;1976933;72;21544;-76
2021/07/28 04:22:54;;;;;;;10.13;9.05;;;18.70;99.90;;;;;;1976509;72;21510;-76
2021/07/28 04:25:20;;;;;;;9.93;8.68;;;18.70;99.90;;;;;;1976646;72;21483;-77
2021/07/28 04:27:47;;;;;;;10.90;8.15;;;18.70;99.90;;;;;;1976452;72;21065;-76
2021/07/28 04:30:13;;;;;;;13.45;8.80;;;18.80;99.90;;;;;;1976555;72;21124;-75
2021/07/28 04:32:39;;;;;;;9.35;8.43;;;18.80;99.90;;;;;;1976544;72;21124;-77
2021/07/28 04:35:05;;;;;;;11.55;10.35;;;18.70;99.90;;;;;;1976541;72;21027;-76
2021/07/28 04:37:31;;;;;;;9.68;8.73;;;18.60;99.90;;;;;;1976783;72;21556;-76
2021/07/28 04:40:01;;;;;;;9.58;8.55;;;18.70;99.90;;;;;;1977161;72;21023;-76
2021/07/28 04:42:25;;;;;;;12.63;9.08;;;18.80;99.90;;;;;;1976246;72;21488;-77
2021/07/28 04:44:51;;;;;;;11.85;9.43;;;18.90;99.90;;;;;;1979324;72;21122;-77
2021/07/28 04:47:17;;;;;;;12.30;11.05;;;18.80;99.90;;;;;;1979848;72;21001;-76
2021/07/28 04:49:43;;;;;;;12.25;10.88;;;18.70;99.90;;;;;;1977075;72;21439;-75
2021/07/28 04:52:11;;;;;;;11.08;9.13;;;18.60;99.90;;;;;;1976413;72;21466;-76
2021/07/28 04:54:37;;;;;;;12.80;9.08;;;18.80;99.90;;;;;;1976462;72;21059;-76
2021/07/28 04:57:03;;;;;;;11.03;8.70;;;18.90;99.90;;;;;;1976358;72;21059;-76
2021/07/28 04:59:29;;;;;;;14.50;8.75;;;19.00;99.90;;;;;;1976519;72;21081;-75
2021/07/28 05:01:55;;;;;;;12.35;8.88;;;19.00;99.90;;;;;;1976671;72;21132;-77
2021/07/28 05:04:22;;;;;;;11.73;10.20;;;19.10;99.90;;;;;;1976305;72;21080;-78
2021/07/28 05:06:48;;;;;;;12.35;9.20;;;19.20;99.90;;;;;;1976488;72;21059;-77
2021/07/28 05:09:15;;;;;;;12.00;9.38;;;19.30;99.90;;;;;;1976468;72;21106;-77
2021/07/28 05:11:42;;;;;;;9.83;8.48;;;19.40;99.90;;;;;;1976452;72;21032;-78
2021/07/28 05:14:08;;;;;;;10.32;8.38;;;19.50;99.90;;;;;;1976784;72;21055;-78
2021/07/28 05:16:34;;;;;;;10.98;9.70;;;19.40;99.90;;;;;;1976831;72;21167;-78
2021/07/28 05:19:00;;;;;;;10.40;9.00;;;19.50;99.90;;;;;;1976860;72;21063;-78
2021/07/28 05:21:26;;;;;;;13.53;9.15;;;19.60;99.90;;;;;;1976462;73;21058;-77
2021/07/28 05:23:52;;;;;;;9.05;7.72;;;19.60;99.90;;;;;;1976368;72;21054;-75
2021/07/28 05:26:18;;;;;;;11.53;9.63;;;19.60;99.90;;;;;;1976355;72;21051;-78
2021/07/28 05:28:45;;;;;;;10.63;8.53;;;19.60;99.90;;;;;;1976291;73;21074;-78
2021/07/28 05:31:11;;;;;;;21.30;9.50;;;19.50;99.90;;;;;;1976395;72;21132;-76
2021/07/28 05:33:37;;;;;;;10.58;8.43;;;19.50;99.90;;;;;;1976275;72;21553;-78
2021/07/28 05:36:03;;;;;;;9.40;8.10;;;19.50;99.90;;;;;;1976088;73;21474;-77
2021/07/28 05:38:29;;;;;;;9.10;7.97;;;19.60;99.90;;;;;;1975965;72;21540;-77
2021/07/28 05:40:55;;;;;;;12.58;10.10;;;19.60;99.90;;;;;;1976091;72;21480;-77
2021/07/28 05:43:21;;;;;;;12.10;9.18;;;19.60;99.90;;;;;;1976047;72;21589;-77
2021/07/28 05:45:47;;;;;;;16.10;10.23;;;19.60;99.90;;;;;;1979065;72;21487;-77
2021/07/28 05:48:14;;;;;;;11.20;9.93;;;19.50;99.90;;;;;;1976063;73;21510;-75
2021/07/28 05:50:40;;;;;;;13.25;9.98;;;19.50;99.90;;;;;;1976057;73;21404;-79
2021/07/28 05:53:06;;;;;;;10.28;9.25;;;19.60;99.90;;;;;;1976299;73;21121;-76
2021/07/28 05:55:32;;;;;;;15.68;10.72;;;19.70;99.90;;;;;;1982326;72;21165;-78
2021/07/28 05:57:59;;;;;;;12.60;9.95;;;19.70;99.90;;;;;;1976477;72;21055;-79
2021/07/28 06:00:25;;;;;;;9.35;8.35;;;19.60;99.90;;;;;;1976326;72;21491;-79
2021/07/28 06:02:51;;;;;;;8.30;7.37;;;19.60;99.90;;;;;;1982186;72;21496;-79
2021/07/28 06:05:18;;;;;;;8.40;7.40;;;19.70;99.90;;;;;;1976303;73;21504;-78
2021/07/28 06:07:44;;;;;;;10.32;7.55;;;19.80;99.90;;;;;;1976104;73;21149;-79
2021/07/28 06:10:10;;;;;;;7.62;6.25;;;19.80;99.90;;;;;;1976209;72;21022;-79
2021/07/28 06:12:36;;;;;;;8.90;6.40;;;19.80;99.90;;;;;;1976164;73;21075;-80
2021/07/28 06:15:02;;;;;;;6.90;6.03;;;19.70;99.90;;;;;;1976165;72;21080;-78
2021/07/28 06:17:28;;;;;;;8.88;5.92;;;20.00;99.90;;;;;;1976101;73;21055;-80
2021/07/28 06:19:54;;;;;;;9.55;5.60;;;20.00;99.90;;;;;;1976115;73;21098;-80
2021/07/28 06:22:22;;;;;;;8.20;5.08;;;20.20;99.90;;;;;;1976524;73;21076;-80
2021/07/28 06:24:48;;;;;;;7.12;4.70;;;20.00;99.90;;;;;;1976352;72;21064;-80
2021/07/28 06:27:14;;;;;;;5.53;4.72;;;19.90;99.90;;;;;;1976750;72;21227;-80
2021/07/28 06:29:41;;;;;;;8.93;4.60;;;19.90;99.90;;;;;;1976280;73;21128;-80
2021/07/28 06:32:07;;;;;;;4.08;3.67;;;20.00;99.90;;;;;;1976384;72;21157;-80
2021/07/28 06:34:33;;;;;;;12.18;4.42;;;20.00;99.90;;;;;;1976298;72;21227;-79
2021/07/28 06:36:59;;;;;;;8.15;4.78;;;19.90;99.90;;;;;;1976346;72;21166;-80
2021/07/28 06:39:26;;;;;;;6.70;4.15;;;19.90;99.90;;;;;;1976372;73;21059;-77
2021/07/28 06:41:52;;;;;;;4.10;3.37;;;19.90;99.90;;;;;;1976350;72;21511;-78
2021/07/28 06:44:18;;;;;;;4.83;3.87;;;19.70;99.90;;;;;;1976250;73;21511;-78
2021/07/28 06:46:44;;;;;;;7.03;3.50;;;19.70;99.90;;;;;;1976162;72;21655;-77
2021/07/28 06:49:10;;;;;;;5.17;4.17;;;19.60;99.90;;;;;;1976392;72;21051;-78
2021/07/28 06:51:36;;;;;;;5.35;4.05;;;19.60;99.90;;;;;;1976195;73;21115;-77
2021/07/28 06:54:03;;;;;;;6.25;4.00;;;19.40;99.90;;;;;;1976237;73;21077;-78
2021/07/28 06:56:29;;;;;;;7.10;4.12;;;19.60;99.90;;;;;;1976380;72;21055;-77
2021/07/28 06:58:55;;;;;;;43.75;7.08;;;19.60;99.90;;;;;;1976644;72;21159;-77
2021/07/28 07:01:21;;;;;;;8.45;4.80;;;19.60;99.90;;;;;;1976246;72;21091;-78
2021/07/28 07:03:48;;;;;;;5.12;2.95;;;19.60;99.90;;;;;;1976382;72;21120;-77
2021/07/28 07:06:14;;;;;;;6.78;3.45;;;19.60;99.90;;;;;;1976402;72;21146;-76
2021/07/28 07:08:40;;;;;;;4.90;3.27;;;19.30;99.90;;;;;;1976174;73;21157;-77
2021/07/28 07:11:06;;;;;;;4.33;3.35;;;19.40;99.90;;;;;;1976149;73;21153;-77
2021/07/28 07:13:34;;;;;;;3.45;3.05;;;19.40;99.90;;;;;;1976854;72;21147;-76
2021/07/28 07:16:00;;;;;;;5.60;3.45;;;19.40;99.90;;;;;;1976160;73;21087;-76
2021/07/28 07:18:26;;;;;;;5.60;3.80;;;19.30;99.90;;;;;;1976168;72;21095;-77
2021/07/28 07:20:52;;;;;;;4.60;3.80;;;19.30;99.90;;;;;;1976131;73;21076;-76
2021/07/28 07:23:18;;;;;;;11.73;3.80;;;19.30;99.90;;;;;;1976123;73;21068;-76
2021/07/28 07:25:44;;;;;;;3.55;3.20;;;19.30;99.90;;;;;;1976113;73;21118;-77
2021/07/28 07:28:10;;;;;;;6.30;3.52;;;19.50;99.90;;;;;;1976043;73;21145;-77
2021/07/28 07:30:36;;;;;;;15.90;5.37;;;19.30;99.90;;;;;;1976112;73;21079;-76
2021/07/28 07:35:47;;;;;;;4.42;3.50;;;19.30;99.90;;;;;;1976085;73;21509;-77
2021/07/28 07:38:13;;;;;;;4.85;3.35;;;19.30;99.90;;;;;;1976009;73;21523;-76
2021/07/28 07:40:39;;;;;;;5.92;3.37;;;19.30;99.90;;;;;;1976108;73;21063;-76
2021/07/28 07:43:05;;;;;;;5.05;3.10;;;19.20;99.90;;;;;;1975882;72;21075;-79
2021/07/28 07:45:33;;;;;;;4.35;3.20;;;19.30;99.90;;;;;;1976121;73;21149;-76
2021/07/28 07:47:59;;;;;;;5.78;3.58;;;19.30;99.90;;;;;;1976015;72;21161;-76
2021/07/28 07:50:25;;;;;;;3.60;3.30;;;19.30;99.90;;;;;;1976124;72;21092;-77
2021/07/28 07:52:52;;;;;;;3.50;2.95;;;19.30;99.90;;;;;;1976040;73;21460;-77
2021/07/28 07:55:18;;;;;;;5.35;3.77;;;19.30;99.90;;;;;;1976225;72;21585;-77
2021/07/28 07:57:44;;;;;;;4.70;3.42;;;19.30;99.90;;;;;;1976144;73;21749;-77
2021/07/28 08:00:10;;;;;;;5.50;3.67;;;19.20;99.90;;;;;;1976015;73;21487;-78
2021/07/28 08:02:36;;;;;;;4.37;3.60;;;19.30;99.90;;;;;;1976064;73;21444;-78
2021/07/28 08:05:02;;;;;;;4.22;3.75;;;19.10;99.90;;;;;;1976064;73;21511;-77
2021/07/28 08:07:28;;;;;;;5.30;3.33;;;19.10;99.90;;;;;;1976386;72;21498;-77
2021/07/28 08:09:54;;;;;;;2.95;2.67;;;19.00;99.90;;;;;;1978808;72;21582;-77
2021/07/28 08:12:20;;;;;;;7.17;3.17;;;18.90;99.90;;;;;;1976157;73;21499;-78
2021/07/28 08:14:48;;;;;;;3.27;2.98;;;18.90;99.90;;;;;;1976199;72;21475;-77
2021/07/28 08:17:15;;;;;;;5.90;3.60;;;18.90;99.90;;;;;;1976088;72;21119;-77
2021/07/28 08:19:41;;;;;;;6.05;3.62;;;18.80;99.90;;;;;;1976103;72;21076;-77
2021/07/28 08:22:07;;;;;;;6.70;3.58;;;18.80;99.90;;;;;;1976257;73;21177;-78
2021/07/28 08:24:33;;;;;;;8.33;3.05;;;18.80;99.90;;;;;;1975994;73;21047;-77
2021/07/28 08:27:00;;;;;;;6.03;3.25;;;18.70;99.90;;;;;;1976212;72;21129;-78
2021/07/28 08:29:26;;;;;;;7.03;3.33;;;18.80;99.90;;;;;;1976275;72;21019;-77
2021/07/28 08:31:52;;;;;;;3.15;2.85;;;18.70;99.90;;;;;;1976128;73;21080;-77
2021/07/28 08:34:18;;;;;;;3.52;2.77;;;18.70;99.90;;;;;;1975993;73;21120;-77
2021/07/28 08:36:44;;;;;;;3.05;2.72;;;18.70;99.90;;;;;;1976054;73;21123;-76
2021/07/28 08:39:10;;;;;;;4.62;3.27;;;18.80;99.90;;;;;;1975926;73;21024;-77
2021/07/28 08:41:37;;;;;;;8.30;3.15;;;18.80;99.90;;;;;;1975973;72;21084;-77
2021/07/28 08:44:03;;;;;;;4.70;2.37;;;18.90;99.90;;;;;;1980434;72;21063;-77
2021/07/28 08:46:29;;;;;;;3.65;2.50;;;18.80;99.90;;;;;;1981479;72;21071;-77
2021/07/28 08:48:55;;;;;;;2.50;2.30;;;18.70;99.90;;;;;;1976074;73;21098;-76
2021/07/28 08:51:21;;;;;;;3.37;2.30;;;18.80;99.90;;;;;;1975941;73;21024;-77
2021/07/28 08:53:47;;;;;;;4.42;2.77;;;18.80;99.90;;;;;;1976216;72;21095;-77
2021/07/28 08:56:13;;;;;;;2.75;2.52;;;19.00;99.90;;;;;;1976972;72;21116;-77
2021/07/28 08:58:41;;;;;;;3.72;3.05;;;19.10;99.90;;;;;;1976127;72;21095;-78
2021/07/28 09:01:07;;;;;;;3.98;2.35;;;19.40;99.90;;;;;;1976138;73;21356;-78
2021/07/28 09:03:33;;;;;;;8.70;2.52;;;19.70;99.90;;;;;;1976168;72;21075;-78
2021/07/28 09:06:01;;;;;;;4.42;2.42;;;19.90;99.90;;;;;;1976104;73;21197;-77
2021/07/28 09:08:27;;;;;;;3.70;2.25;;;19.90;99.90;;;;;;1976075;73;21103;-77
2021/07/28 09:10:53;;;;;;;4.95;2.17;;;20.10;99.90;;;;;;1976569;73;21065;-77
2021/07/28 09:13:19;;;;;;;3.87;2.40;;;20.00;99.90;;;;;;1978258;72;21053;-79
2021/07/28 09:15:45;;;;;;;5.80;2.60;;;20.10;99.90;;;;;;1979879;72;21068;-79
2021/07/28 09:18:11;;;;;;;5.75;2.10;;;20.40;99.90;;;;;;1977674;72;21098;-79
2021/07/28 09:20:37;;;;;;;3.33;2.50;;;20.40;99.90;;;;;;1976137;72;21080;-79
2021/07/28 09:23:04;;;;;;;3.47;2.72;;;20.20;99.90;;;;;;1976144;72;21487;-79
2021/07/28 09:25:33;;;;;;;3.75;2.62;;;20.50;99.90;;;;;;1976125;73;21600;-80
2021/07/28 09:27:58;;;;;;;3.00;2.62;;;20.60;99.90;;;;;;1975814;72;21149;-80
2021/07/28 09:30:24;;;;;;;12.05;2.65;;;20.80;99.90;;;;;;1976024;73;21451;-79
2021/07/28 09:32:50;;;;;;;4.87;2.65;;;20.70;99.90;;;;;;1977319;72;21064;-81
2021/07/28 09:35:16;;;;;;;2.58;2.37;;;20.60;99.90;;;;;;1976542;73;21479;-80
2021/07/28 09:37:42;;;;;;;12.73;3.20;;;20.60;99.90;;;;;;1976533;72;21142;-80
2021/07/28 09:40:08;;;;;;;4.47;2.52;;;20.50;99.90;;;;;;1976054;73;21500;-81
2021/07/28 09:42:34;;;;;;;4.65;3.00;;;20.90;99.90;;;;;;1976193;72;21512;-82
2021/07/28 09:45:00;;;;;;;5.70;3.10;;;21.00;99.90;;;;;;1976226;73;21113;-82
2021/07/28 09:47:27;;;;;;;5.47;2.33;;;21.20;99.90;;;;;;1976127;73;21077;-84
2021/07/28 09:49:53;;;;;;;7.75;2.33;;;21.20;99.90;;;;;;1976261;73;21064;-82
2021/07/28 09:52:19;;;;;;;2.62;2.22;;;21.30;99.90;;;;;;1976331;72;21080;-81
2021/07/28 09:54:45;;;;;;;2.92;2.47;;;21.00;99.90;;;;;;1976203;73;21127;-80
2021/07/28 09:57:12;;;;;;;4.17;2.33;;;21.20;99.90;;;;;;1976291;72;21075;-80
2021/07/28 09:59:38;;;;;;;3.05;2.20;;;21.10;99.90;;;;;;1976105;73;21157;-78
2021/07/28 10:02:04;;;;;;;3.42;2.60;;;21.00;99.90;;;;;;1976041;73;21018;-79
2021/07/28 10:04:30;;;;;;;2.60;1.82;;;21.30;99.90;;;;;;1976347;72;21072;-78
2021/07/28 10:06:56;;;;;;;5.58;2.05;;;21.20;99.90;;;;;;1976065;72;21103;-79
2021/07/28 10:09:22;;;;;;;4.20;1.90;;;21.30;99.90;;;;;;1976147;73;21141;-78
2021/07/28 10:11:49;;;;;;;3.17;2.25;;;21.40;99.90;;;;;;1976055;72;21072;-84
2021/07/28 10:14:15;;;;;;;4.47;1.95;;;21.80;99.90;;;;;;1976142;72;21106;-79
2021/07/28 10:16:41;;;;;;;3.77;2.02;;;21.90;99.90;;;;;;1976196;72;21051;-78
2021/07/28 10:19:07;;;;;;;2.80;2.02;;;22.10;99.90;;;;;;1976004;73;21047;-81
2021/07/28 10:21:33;;;;;;;2.45;1.90;;;21.90;99.90;;;;;;1976120;73;21150;-81
2021/07/28 10:23:59;;;;;;;5.95;2.37;;;22.10;99.90;;;;;;1976060;73;21149;-81
2021/07/28 10:26:25;;;;;;;2.33;2.10;;;22.20;99.90;;;;;;1976174;73;21090;-81
2021/07/28 10:28:54;;;;;;;4.47;2.22;;;22.10;99.90;;;;;;1976265;72;21141;-79
2021/07/28 10:31:20;;;;;;;2.72;2.10;;;22.40;99.90;;;;;;1976091;72;21068;-82
2021/07/28 10:33:46;;;;;;;2.83;2.02;;;22.60;99.90;;;;;;1976615;72;21088;-79
2021/07/28 10:36:12;;;;;;;2.72;1.80;;;22.90;99.90;;;;;;1976192;73;21080;-79
2021/07/28 10:38:38;;;;;;;3.30;2.00;;;23.00;99.90;;;;;;1976018;72;21133;-79
2021/07/28 10:41:07;;;;;;;8.70;1.90;;;22.80;99.90;;;;;;1979095;72;21318;-79
2021/07/28 10:43:32;;;;;;;2.95;1.95;;;22.60;99.90;;;;;;1975937;72;21076;-85
2021/07/28 10:45:58;;;;;;;3.17;1.80;;;22.30;99.90;;;;;;1976181;73;21079;-83
2021/07/28 10:48:24;;;;;;;3.95;2.25;;;21.70;99.90;;;;;;1976155;73;21164;-83
2021/07/28 10:50:51;;;;;;;2.55;2.05;;;21.60;99.90;;;;;;1979132;72;21066;-84
2021/07/28 10:53:17;;;;;;;4.60;2.35;;;21.50;99.90;;;;;;1976563;72;21015;-83
2021/07/28 10:55:43;;;;;;;5.08;2.30;;;21.60;99.90;;;;;;1985848;72;21050;-84
2021/07/28 10:58:10;;;;;;;3.47;2.17;;;21.60;99.90;;;;;;1976601;72;21055;-79
2021/07/28 11:00:43;;;;;;;4.40;2.60;;;21.60;99.90;;;;;;1976954;72;21486;-82
2021/07/28 11:03:08;;;;;;;4.37;2.58;;;21.60;99.90;;;;;;1974939;72;21157;-81
2021/07/28 11:05:31;;;;;;;2.30;2.10;;;22.00;99.90;;;;;;1975594;72;21075;-82
2021/07/28 11:07:58;;;;;;;3.17;1.95;;;22.10;99.90;;;;;;1976243;73;21056;-83
2021/07/28 11:10:24;;;;;;;2.30;2.10;;;22.40;99.90;;;;;;1976489;73;21055;-84
2021/07/28 11:12:50;;;;;;;3.22;2.35;;;22.50;99.90;;;;;;1976266;73;21084;-78
2021/07/28 11:15:16;;;;;;;3.05;2.20;;;22.20;99.90;;;;;;1976256;73;21059;-78
2021/07/28 11:17:43;;;;;;;2.52;2.17;;;21.90;99.90;;;;;;1976369;72;21116;-78
2021/07/28 11:20:09;;;;;;;3.08;2.30;;;22.30;99.90;;;;;;1976212;73;21529;-79
2021/07/28 11:22:35;;;;;;;2.70;2.10;;;22.20;99.90;;;;;;1976157;73;21485;-78
2021/07/28 11:25:01;;;;;;;3.67;2.40;;;22.30;99.90;;;;;;1976177;73;21079;-81
2021/07/28 11:27:27;;;;;;;2.75;1.82;;;22.60;99.90;;;;;;1975933;73;21054;-78
2021/07/28 11:29:54;;;;;;;7.30;2.12;;;22.80;99.90;;;;;;1976128;73;21149;-79
2021/07/28 11:32:20;;;;;;;5.42;2.70;;;22.70;99.90;;;;;;1975954;73;21024;-78
2021/07/28 11:34:46;;;;;;;3.50;2.37;;;22.30;99.90;;;;;;1976123;72;21083;-78
2021/07/28 11:37:12;;;;;;;3.62;2.37;;;22.70;99.90;;;;;;1975971;73;21050;-78
2021/07/28 11:39:39;;;;;;;2.67;2.30;;;22.40;99.90;;;;;;1976110;73;21125;-78
2021/07/28 11:42:06;;;;;;;4.05;2.27;;;22.60;99.90;;;;;;1975922;73;21562;-78
2021/07/28 11:44:32;;;;;;;4.25;2.65;;;22.90;99.90;;;;;;1976187;73;21128;-79
2021/07/28 11:46:58;;;;;;;3.45;2.55;;;22.70;99.90;;;;;;1976049;73;21153;-78
2021/07/28 11:49:25;;;;;;;3.42;2.30;;;22.90;99.90;;;;;;1976054;73;21083;-78
2021/07/28 11:51:51;;;;;;;3.92;2.33;;;23.70;99.90;;;;;;1976074;73;21148;-79
2021/07/28 11:54:17;;;;;;;3.35;2.47;;;24.00;99.90;;;;;;1976222;73;21066;-79
2021/07/28 11:56:43;;;;;;;2.12;2.02;;;24.20;99.90;;;;;;1976049;73;21040;-78
2021/07/28 11:59:09;;;;;;;7.37;2.15;;;23.60;99.90;;;;;;1975946;73;21521;-79
2021/07/28 12:01:36;;;;;;;5.37;2.65;;;23.80;99.90;;;;;;1981715;72;21514;-78
2021/07/28 12:04:08;;;;;;;4.15;2.50;;;23.60;99.90;;;;;;1977403;73;21141;-79
2021/07/28 12:06:30;;;;;;;4.80;4.40;;;23.50;99.90;;;;;;1975581;72;21522;-79
2021/07/28 12:08:56;;;;;;;8.58;2.95;;;23.60;99.90;;;;;;1976301;72;21091;-79
2021/07/28 12:11:22;;;;;;;6.87;2.55;;;24.00;99.90;;;;;;1976202;73;21064;-79
2021/07/28 12:13:48;;;;;;;3.45;2.25;;;24.10;99.90;;;;;;1976155;73;21145;-79
2021/07/28 12:16:14;;;;;;;1.92;1.82;;;23.80;99.90;;;;;;1976296;73;21154;-80
2021/07/28 12:18:40;;;;;;;2.27;2.05;;;24.00;99.90;;;;;;1976194;73;21113;-79
2021/07/28 12:21:07;;;;;;;3.45;2.00;;;24.30;99.90;;;;;;1976346;72;21056;-78
2021/07/28 12:23:33;;;;;;;2.17;1.90;;;24.40;99.90;;;;;;1975931;73;21540;-79
2021/07/28 12:25:59;;;;;;;4.33;2.20;;;24.90;99.90;;;;;;1976110;73;21507;-78
2021/07/28 12:28:25;;;;;;;2.27;2.08;;;25.10;99.90;;;;;;1976362;72;21511;-79
2021/07/28 12:30:51;;;;;;;4.03;2.27;;;25.40;99.90;;;;;;1976214;73;21475;-79
2021/07/28 12:33:17;;;;;;;2.20;2.00;;;25.70;99.90;;;;;;1976177;73;21606;-79
2021/07/28 12:35:47;;;;;;;5.67;2.35;;;25.90;99.90;;;;;;1976207;72;21092;-79
2021/07/28 12:38:13;;;;;;;2.25;2.05;;;25.70;99.90;;;;;;1976993;72;21141;-79
2021/07/28 12:40:39;;;;;;;3.25;2.10;;;25.80;99.90;;;;;;1976517;73;21017;-79
2021/07/28 12:43:06;;;;;;;2.87;2.20;;;25.90;99.90;;;;;;1976179;73;21189;-79
2021/07/28 12:45:32;;;;;;;5.12;2.20;;;26.40;99.90;;;;;;1976572;72;21495;-80
2021/07/28 12:47:58;;;;;;;4.87;2.27;;;25.70;99.90;;;;;;1976620;73;21609;-80